createdAt,value
2019-03-16T00:01:04.108Z,93.80
2019-03-16T00:05:10.152Z,93.80
2019-03-16T00:09:15.857Z,94.10
2019-03-16T00:13:21.550Z,94.10
2019-03-16T00:17:27.230Z,93.80
2019-03-16T00:21:32.935Z,93.70
2019-03-16T00:25:38.631Z,93.60
2019-03-16T00:29:44.318Z,93.10
2019-03-16T00:33:50.016Z,93.30
2019-03-16T00:37:55.699Z,92.60
2019-03-16T00:42:01.477Z,92.60
2019-03-16T00:46:07.354Z,92.80
2019-03-16T00:50:14.661Z,92.70
2019-03-16T00:54:20.352Z,92.60
2019-03-16T00:58:26.033Z,92.90
2019-03-16T01:02:33.029Z,92.90
2019-03-16T01:06:38.794Z,92.70
2019-03-16T01:10:44.495Z,92.60
2019-03-16T01:14:50.191Z,92.30
2019-03-16T01:18:55.892Z,92.40
2019-03-16T01:23:01.591Z,92.30
2019-03-16T01:27:07.379Z,92.20
2019-03-16T01:31:13.154Z,92.30
2019-03-16T01:35:18.956Z,92.10
2019-03-16T01:39:24.633Z,91.90
2019-03-16T01:43:30.319Z,91.70
2019-03-16T01:47:36.080Z,91.90
2019-03-16T01:51:41.775Z,91.90
2019-03-16T01:55:47.518Z,92.00
2019-03-16T01:59:53.212Z,92.00
2019-03-16T02:03:58.907Z,91.90
2019-03-16T02:08:04.669Z,91.50
2019-03-16T02:12:10.369Z,91.60
2019-03-16T02:16:16.048Z,91.40
2019-03-16T02:20:21.744Z,90.80
2019-03-16T02:24:27.437Z,90.60
2019-03-16T02:28:33.134Z,90.60
2019-03-16T02:32:39.039Z,90.50
2019-03-16T02:36:54.435Z,90.30
2019-03-16T02:41:00.195Z,90.10
2019-03-16T02:45:10.163Z,89.50
2019-03-16T02:49:15.844Z,89.30
2019-03-16T02:53:21.554Z,88.30
2019-03-16T02:57:27.215Z,88.70
2019-03-16T03:01:32.902Z,88.20
2019-03-16T03:05:38.599Z,87.90
2019-03-16T03:09:44.288Z,88.20
2019-03-16T03:13:49.962Z,88.10
2019-03-16T03:17:55.648Z,87.70
2019-03-16T03:22:01.340Z,87.30
2019-03-16T03:26:07.032Z,87.50
2019-03-16T03:30:15.773Z,88.00
2019-03-16T03:34:21.452Z,88.20
2019-03-16T03:38:27.141Z,88.30
2019-03-16T03:42:32.901Z,87.70
2019-03-16T03:46:38.665Z,87.90
2019-03-16T03:50:44.356Z,88.90
2019-03-16T03:54:50.111Z,89.10
2019-03-16T03:58:55.878Z,89.40
2019-03-16T04:03:01.575Z,89.70
2019-03-16T04:07:07.322Z,89.70
2019-03-16T04:11:13.035Z,90.00
2019-03-16T04:15:18.745Z,90.20
2019-03-16T04:19:24.446Z,90.60
2019-03-16T04:23:30.234Z,90.80
2019-03-16T04:27:35.913Z,90.70
2019-03-16T04:31:41.583Z,90.70
2019-03-16T04:35:47.268Z,90.90
2019-03-16T04:39:53.007Z,90.90
2019-03-16T04:43:58.698Z,90.70
2019-03-16T04:48:04.455Z,91.00
2019-03-16T04:52:10.133Z,91.00
2019-03-16T04:56:15.822Z,90.90
2019-03-16T05:00:21.551Z,90.60
2019-03-16T05:04:27.240Z,90.50
2019-03-16T05:08:32.913Z,90.70
2019-03-16T05:12:38.675Z,90.40
2019-03-16T05:16:44.382Z,90.50
2019-03-16T05:20:50.077Z,90.40
2019-03-16T05:24:55.908Z,90.20
2019-03-16T05:29:01.583Z,90.10
2019-03-16T05:33:07.286Z,90.10
2019-03-16T05:37:12.989Z,89.40
2019-03-16T05:41:18.676Z,89.00
2019-03-16T05:45:24.511Z,90.00
2019-03-16T05:49:30.184Z,90.00
2019-03-16T05:53:35.868Z,90.10
2019-03-16T05:57:41.560Z,90.20
2019-03-16T06:01:47.276Z,90.50
2019-03-16T06:05:55.094Z,90.60
2019-03-16T06:10:00.405Z,90.50
2019-03-16T06:14:06.348Z,90.60
2019-03-16T06:18:13.324Z,90.60
2019-03-16T06:22:20.741Z,90.60
2019-03-16T06:26:26.415Z,90.80
2019-03-16T06:30:32.103Z,90.80
2019-03-16T06:34:37.794Z,90.40
2019-03-16T06:38:43.484Z,90.60
2019-03-16T06:42:49.178Z,89.60
2019-03-16T06:46:54.952Z,89.10
2019-03-16T06:51:00.660Z,89.10
2019-03-16T06:55:08.281Z,88.40
2019-03-16T06:59:13.966Z,87.50
2019-03-16T07:03:19.652Z,86.40
2019-03-16T07:07:25.329Z,87.10
2019-03-16T07:11:31.017Z,87.00
2019-03-16T07:15:36.715Z,86.60
2019-03-16T07:19:42.413Z,86.20
2019-03-16T07:23:48.113Z,86.70
2019-03-16T07:27:53.832Z,86.30
2019-03-16T07:37:04.808Z,85.90
2019-03-16T07:41:10.508Z,87.00
2019-03-16T07:45:16.325Z,86.70
2019-03-16T07:49:22.041Z,86.90
2019-03-16T07:53:27.713Z,86.10
2019-03-16T07:57:40.084Z,84.10
2019-03-16T08:01:40.813Z,82.90
2019-03-16T08:05:46.503Z,84.20
2019-03-16T08:09:52.258Z,82.40
2019-03-16T08:13:57.944Z,81.90
2019-03-16T08:18:03.700Z,80.30
2019-03-16T08:22:09.446Z,80.60
2019-03-16T08:26:15.226Z,81.90
2019-03-16T08:30:23.527Z,82.30
2019-03-16T08:34:28.308Z,80.30
2019-03-16T08:38:34.014Z,81.30
2019-03-16T08:42:39.691Z,81.20
2019-03-16T08:46:45.394Z,81.80
2019-03-16T08:50:51.091Z,81.80
2019-03-16T08:54:56.816Z,80.00
2019-03-16T08:59:02.517Z,78.20
2019-03-16T09:03:08.215Z,77.40
2019-03-16T09:07:13.960Z,74.90
2019-03-16T09:11:19.681Z,75.50
2019-03-16T09:15:25.332Z,76.60
2019-03-16T09:19:31.017Z,76.50
2019-03-16T09:23:36.721Z,77.30
2019-03-16T09:27:42.397Z,75.80
2019-03-16T09:31:48.106Z,75.50
2019-03-16T09:35:53.801Z,75.60
2019-03-16T09:39:59.496Z,75.30
2019-03-16T09:44:05.709Z,75.70
2019-03-16T09:48:11.408Z,77.80
2019-03-16T09:52:17.110Z,79.10
2019-03-16T09:56:22.800Z,81.70
2019-03-16T10:00:28.480Z,83.70
2019-03-16T10:04:34.154Z,84.20
2019-03-16T10:08:39.929Z,83.40
2019-03-16T10:12:45.702Z,83.30
2019-03-16T10:16:51.413Z,83.40
2019-03-16T10:20:57.188Z,83.20
2019-03-16T10:25:02.938Z,82.80
2019-03-16T10:29:08.621Z,82.50
2019-03-16T10:33:14.318Z,81.90
2019-03-16T10:37:19.999Z,82.30
2019-03-16T10:41:25.774Z,80.30
2019-03-16T10:45:31.487Z,80.10
2019-03-16T10:49:37.260Z,78.70
2019-03-16T10:53:42.950Z,77.20
2019-03-16T10:57:48.725Z,75.50
2019-03-16T11:01:54.435Z,75.00
2019-03-16T11:06:00.174Z,74.90
2019-03-16T11:10:12.314Z,67.70
2019-03-16T11:14:19.075Z,65.00
2019-03-16T11:18:24.759Z,63.70
2019-03-16T11:22:31.423Z,61.40
2019-03-16T11:26:37.120Z,63.60
2019-03-16T11:30:42.835Z,64.70
2019-03-16T11:34:48.508Z,63.00
2019-03-16T11:38:54.212Z,52.20
2019-03-16T11:42:59.895Z,41.90
2019-03-16T11:47:05.690Z,43.80
2019-03-16T11:51:11.388Z,40.30
2019-03-16T11:55:18.698Z,37.70
2019-03-16T11:59:24.443Z,42.00
2019-03-16T12:03:30.176Z,40.90
2019-03-16T12:07:35.867Z,39.90
2019-03-16T12:11:41.573Z,40.80
2019-03-16T12:15:47.297Z,41.50
2019-03-16T12:19:52.978Z,40.40
2019-03-16T12:23:58.843Z,35.20
2019-03-16T12:28:04.611Z,37.10
2019-03-16T12:32:10.356Z,40.70
2019-03-16T12:36:16.046Z,39.60
2019-03-16T12:40:21.793Z,37.60
2019-03-16T12:44:28.443Z,39.90
2019-03-16T12:48:34.139Z,36.90
2019-03-16T12:52:39.832Z,37.70
2019-03-16T12:56:45.604Z,38.70
2019-03-16T13:00:51.273Z,37.30
2019-03-16T13:04:57.081Z,36.10
2019-03-16T13:09:02.894Z,34.30
2019-03-16T13:13:11.715Z,34.70
2019-03-16T13:17:16.050Z,37.40
2019-03-16T13:21:21.741Z,41.00
2019-03-16T13:25:27.435Z,41.00
2019-03-16T13:29:33.127Z,41.30
2019-03-16T13:33:38.814Z,43.00
2019-03-16T13:37:44.530Z,42.40
2019-03-16T13:41:50.291Z,43.30
2019-03-16T13:45:56.079Z,42.60
2019-03-16T13:50:01.760Z,42.60
2019-03-16T13:54:07.466Z,43.20
2019-03-16T13:58:13.147Z,42.40
2019-03-16T14:02:18.838Z,38.00
2019-03-16T14:06:25.494Z,38.00
2019-03-16T14:10:33.192Z,37.60
2019-03-16T14:14:38.889Z,36.60
2019-03-16T14:18:44.579Z,36.10
2019-03-16T14:22:50.277Z,34.40
2019-03-16T14:26:56.037Z,32.20
2019-03-16T14:31:01.739Z,31.20
2019-03-16T14:35:08.198Z,34.00
2019-03-16T14:39:13.886Z,34.50
2019-03-16T14:43:19.579Z,35.60
2019-03-16T14:47:25.335Z,39.40
2019-03-16T14:51:31.024Z,41.20
2019-03-16T14:55:36.747Z,41.80
2019-03-16T14:59:42.434Z,42.90
2019-03-16T15:03:48.144Z,43.90
2019-03-16T15:07:53.834Z,45.10
2019-03-16T15:11:59.545Z,46.00
2019-03-16T15:16:05.519Z,46.40
2019-03-16T15:20:12.332Z,47.40
2019-03-16T15:24:18.017Z,47.90
2019-03-16T15:28:23.716Z,49.60
2019-03-16T15:32:29.425Z,50.10
2019-03-16T15:36:35.124Z,50.10
2019-03-16T15:40:40.824Z,49.10
2019-03-16T15:44:46.515Z,48.80
2019-03-16T15:48:52.281Z,49.10
2019-03-16T15:52:58.036Z,49.80
2019-03-16T15:57:03.866Z,49.30
2019-03-16T16:01:09.671Z,50.70
2019-03-16T16:05:15.578Z,51.00
2019-03-16T16:09:21.352Z,51.70
2019-03-16T16:13:27.068Z,51.50
2019-03-16T16:17:32.769Z,51.70
2019-03-16T16:21:38.474Z,51.50
2019-03-16T16:25:44.308Z,52.30
2019-03-16T16:29:52.682Z,53.10
2019-03-16T16:33:58.533Z,52.90
2019-03-16T16:38:07.271Z,53.20
2019-03-16T16:42:11.743Z,53.30
2019-03-16T16:46:17.457Z,54.10
2019-03-16T16:50:27.020Z,54.10
2019-03-16T16:54:32.717Z,54.00
2019-03-16T16:58:41.569Z,54.80
2019-03-16T17:02:47.267Z,54.80
2019-03-16T17:06:54.120Z,55.40
2019-03-16T17:10:59.811Z,54.30
2019-03-16T17:15:11.584Z,54.10
2019-03-16T17:19:18.245Z,54.60
2019-03-16T17:23:23.933Z,55.10
2019-03-16T17:27:29.627Z,54.60
2019-03-16T17:31:42.139Z,54.60
2019-03-16T17:35:42.733Z,54.40
2019-03-16T17:39:48.396Z,54.70
2019-03-16T17:43:54.106Z,55.10
2019-03-16T17:47:59.857Z,54.30
2019-03-16T17:52:05.778Z,54.80
2019-03-16T17:56:12.979Z,54.60
2019-03-16T18:00:19.884Z,54.70
2019-03-16T18:04:27.829Z,54.30
2019-03-16T18:08:33.069Z,55.00
2019-03-16T18:12:38.883Z,55.00
2019-03-16T18:16:44.570Z,54.00
2019-03-16T18:20:50.304Z,54.30
2019-03-16T18:24:55.999Z,54.80
2019-03-16T18:29:01.703Z,54.40
2019-03-16T18:33:07.448Z,54.70
2019-03-16T18:37:13.122Z,54.80
2019-03-16T18:41:18.829Z,55.60
2019-03-16T18:45:35.055Z,55.60
2019-03-16T18:49:40.824Z,55.90
2019-03-16T18:53:46.541Z,56.60
2019-03-16T18:57:52.251Z,56.90
2019-03-16T19:01:57.970Z,56.70
2019-03-16T19:06:03.791Z,57.00
2019-03-16T19:10:19.186Z,57.90
2019-03-16T19:14:24.881Z,58.90
2019-03-16T19:18:30.584Z,58.40
2019-03-16T19:22:36.277Z,58.60
2019-03-16T19:26:41.980Z,57.80
2019-03-16T19:30:47.690Z,57.30
2019-03-16T19:34:53.384Z,57.20
2019-03-16T19:38:59.089Z,57.10
2019-03-16T19:43:04.900Z,57.90
2019-03-16T19:47:12.400Z,58.40
2019-03-16T19:51:18.114Z,57.90
2019-03-16T19:55:23.822Z,58.30
2019-03-16T19:59:30.470Z,58.10
2019-03-16T20:03:36.189Z,57.90
2019-03-16T20:07:41.903Z,57.30
2019-03-16T20:11:47.605Z,58.10
2019-03-16T20:15:53.353Z,57.90
2019-03-16T20:19:59.050Z,58.40
2019-03-16T20:24:04.748Z,58.40
2019-03-16T20:28:10.447Z,58.00
2019-03-16T20:32:16.135Z,57.50
2019-03-16T20:36:21.850Z,57.90
2019-03-16T20:40:27.539Z,58.00
2019-03-16T20:44:33.228Z,58.10
2019-03-16T20:48:38.933Z,58.20
2019-03-16T20:52:44.608Z,58.50
2019-03-16T20:56:50.291Z,58.70
2019-03-16T21:00:58.267Z,58.90
2019-03-16T21:05:04.262Z,59.30
2019-03-16T21:09:10.005Z,59.30
2019-03-16T21:13:15.698Z,59.00
2019-03-16T21:17:21.440Z,59.00
2019-03-16T21:21:27.215Z,59.20
2019-03-16T21:25:32.919Z,59.00
2019-03-16T21:29:38.626Z,58.80
2019-03-16T21:33:45.878Z,58.30
2019-03-16T21:37:51.657Z,57.80
2019-03-16T21:41:58.357Z,57.10
2019-03-16T21:46:04.128Z,57.20
2019-03-16T21:50:15.107Z,56.70
2019-03-16T21:54:22.070Z,57.00
2019-03-16T21:58:27.771Z,57.20
2019-03-16T22:02:33.503Z,56.90
2019-03-16T22:06:39.209Z,57.30
2019-03-16T22:10:44.910Z,57.30
2019-03-16T22:14:50.595Z,57.10
2019-03-16T22:18:56.281Z,57.30
2019-03-16T22:23:02.952Z,57.10
2019-03-16T22:27:08.667Z,57.30
2019-03-16T22:31:14.432Z,57.30
2019-03-16T22:35:20.135Z,57.00
2019-03-16T22:39:25.831Z,57.00
2019-03-16T22:43:31.519Z,56.50
2019-03-16T22:47:37.219Z,56.50
2019-03-16T22:51:42.896Z,55.80
2019-03-16T22:55:48.581Z,55.20
2019-03-16T22:59:54.276Z,54.60
2019-03-16T23:04:06.902Z,54.10
2019-03-16T23:08:07.445Z,53.80
2019-03-16T23:12:13.213Z,52.50
2019-03-16T23:16:19.090Z,51.40
2019-03-16T23:20:24.804Z,51.10
2019-03-16T23:24:30.491Z,50.10
2019-03-16T23:28:36.319Z,49.10
2019-03-16T23:32:42.228Z,47.60
2019-03-16T23:36:48.038Z,47.00
2019-03-16T23:40:53.724Z,46.30
2019-03-16T23:44:59.439Z,46.20
2019-03-16T23:49:05.125Z,45.40
2019-03-16T23:53:10.877Z,45.10
2019-03-16T23:57:16.647Z,44.90
